This is the latest recevied weather packets stored in our database for station/object KC4ANB. If no packets are shown the sender has not sent any weather packets the latest 10 day(s).
| Time | Temp. | Humidity | Pressure | Rain* | Wind** | Luminosity | Snow |
|---|---|---|---|---|---|---|---|
| 1777276937 | 16.67° C | 89% | 1014.5 hPa | 0 mm | - | - | - |
| 1777274538 | 16.67° C | 89% | 1014.3 hPa | 0 mm | - | - | - |
| 1777269137 | 16.67° C | 90% | 1014.3 hPa | 0 mm | - | - | - |
| 1777261336 | 17.78° C | 90% | 1013.4 hPa | 0 mm | - | - | - |
| 1777257136 | 18.33° C | 89% | 1013.3 hPa | 0 mm | - | - | - |
| 1777255957 | 18.89° C | 88% | 1013.1 hPa | 0 mm | - | - | - |
| 1777252936 | 20° C | 85% | 1012.4 hPa | 0 mm | - | - | - |
| 1777252357 | 20° C | 84% | 1012.2 hPa | 0 mm | - | - | - |
| 1777249936 | 21.67° C | 79% | 1011.9 hPa | 0 mm | - | - | - |
| 1777249336 | 22.22° C | 77% | 1011.8 hPa | 0 mm | - | - | - |
| 1777246938 | 24.44° C | 66% | 1011.8 hPa | 0 mm | - | - | - |
| 1777245737 | 24.44° C | 64% | 1011.6 hPa | 0 mm | - | - | - |
| 1777244558 | 24.44° C | 64% | 1011.7 hPa | 0 mm | - | - | - |
| 1777242738 | 24.44° C | 65% | 1011.5 hPa | 0 mm | - | - | - |
| 1777241537 | 25° C | 65% | 1011.3 hPa | 0 mm | - | - | - |
| 1777234958 | 25.56° C | 68% | 1011.4 hPa | 0 mm | - | - | - |
| 1777234337 | 25° C | 66% | 1011.3 hPa | 0 mm | - | - | - |
| 1777229537 | 24.44° C | 75% | 1012.2 hPa | 0 mm | - | - | - |
| 1777227737 | 23.89° C | 78% | 1012.6 hPa | 0 mm | - | - | - |
| 1777224737 | 22.78° C | 82% | 1013.1 hPa | 0 mm | - | - | - |
| 1777224137 | 22.22° C | 83% | 1013.2 hPa | 0 mm | - | - | - |
| 1777216337 | 18.89° C | 93% | 1013 hPa | 0 mm | - | - | - |
| 1777215737 | 18.89° C | 94% | 1012.9 hPa | 0 mm | - | - | - |
| 1777214557 | 18.33° C | 96% | 1013 hPa | 0 mm | - | - | - |
| 1777211557 | 17.22° C | 98% | 1012.6 hPa | 0 mm | - | - | - |
* Rain latest hour (hover to see other rain measurements)
** Current wind speed in m/s (hover to see current wind gust speed)